createdAt,value
2022-11-06T00:01:36.638Z,60.12
2022-11-06T00:04:42.677Z,59.98
2022-11-06T00:07:48.181Z,57.67
2022-11-06T00:10:53.570Z,58.61
2022-11-06T00:14:01.527Z,60.49
2022-11-06T00:17:07.012Z,63.95
2022-11-06T00:20:12.809Z,70.78
2022-11-06T00:23:18.974Z,68.43
2022-11-06T00:26:26.246Z,65.22
2022-11-06T00:29:31.656Z,62.76
2022-11-06T00:32:37.100Z,62.07
2022-11-06T00:35:43.264Z,61.28
2022-11-06T00:38:48.787Z,60.57
2022-11-06T00:42:04.510Z,59.84
2022-11-06T00:45:11.153Z,58.72
2022-11-06T00:48:23.909Z,57.12
2022-11-06T00:51:30.554Z,59.87
2022-11-06T00:54:36.119Z,61.73
2022-11-06T00:57:41.568Z,61.53
2022-11-06T01:00:47.097Z,60.66
2022-11-06T01:03:57.402Z,61.30
2022-11-06T01:07:03.031Z,61.34
2022-11-06T01:10:09.464Z,61.25
2022-11-06T01:13:15.033Z,61.39
2022-11-06T01:16:21.421Z,61.67
2022-11-06T01:19:26.937Z,62.07
2022-11-06T01:22:32.496Z,67.45
2022-11-06T01:25:37.880Z,78.31
2022-11-06T01:28:43.614Z,73.61
2022-11-06T01:31:51.003Z,69.27
2022-11-06T01:34:56.551Z,65.82
2022-11-06T01:38:02.007Z,63.62
2022-11-06T01:41:08.431Z,62.05
2022-11-06T01:44:31.646Z,60.24
2022-11-06T01:47:39.889Z,57.19
2022-11-06T01:50:50.635Z,59.40
2022-11-06T01:53:57.177Z,61.83
2022-11-06T01:57:03.297Z,65.59
2022-11-06T02:00:10.328Z,70.72
2022-11-06T02:03:16.202Z,65.79
2022-11-06T02:06:23.313Z,62.53
2022-11-06T02:09:30.290Z,60.81
2022-11-06T02:12:45.831Z,60.30
2022-11-06T02:15:55.218Z,59.71
2022-11-06T02:19:09.552Z,57.29
2022-11-06T02:22:25.949Z,59.19
2022-11-06T02:25:37.518Z,61.28
2022-11-06T02:28:46.553Z,62.29
2022-11-06T02:31:53.649Z,69.50
2022-11-06T02:35:00.337Z,70.37
2022-11-06T02:38:08.494Z,65.76
2022-11-06T02:41:30.152Z,63.85
2022-11-06T02:44:37.952Z,62.11
2022-11-06T02:47:45.149Z,60.73
2022-11-06T02:50:52.078Z,59.93
2022-11-06T02:54:00.055Z,59.65
2022-11-06T02:57:09.139Z,57.25
2022-11-06T03:00:16.845Z,59.01
2022-11-06T03:03:25.562Z,61.56
2022-11-06T03:06:35.186Z,68.73
2022-11-06T03:09:40.699Z,68.16
2022-11-06T03:12:51.044Z,64.05
2022-11-06T03:16:05.083Z,62.19
2022-11-06T03:19:13.042Z,61.67
2022-11-06T03:22:24.937Z,61.63
2022-11-06T03:25:33.386Z,61.36
2022-11-06T03:28:41.274Z,60.81
2022-11-06T03:31:49.607Z,60.35
2022-11-06T03:34:57.300Z,60.07
2022-11-06T03:38:05.119Z,59.54
2022-11-06T03:41:12.889Z,57.29
2022-11-06T03:44:21.421Z,58.24
2022-11-06T03:47:29.870Z,60.60
2022-11-06T03:50:38.314Z,60.19
2022-11-06T03:53:47.315Z,60.59
2022-11-06T03:56:55.411Z,61.30
2022-11-06T04:00:05.967Z,61.65
2022-11-06T04:03:22.226Z,61.91
2022-11-06T04:06:31.307Z,61.39
2022-11-06T04:09:57.270Z,61.41
2022-11-06T04:13:24.820Z,62.10
2022-11-06T04:16:32.897Z,74.65
2022-11-06T04:19:43.798Z,77.15
2022-11-06T04:22:54.935Z,72.85
2022-11-06T04:26:24.346Z,70.30
2022-11-06T04:29:37.485Z,67.28
2022-11-06T04:32:58.728Z,65.64
2022-11-06T04:36:12.359Z,63.38
2022-11-06T04:39:23.561Z,61.23
2022-11-06T04:42:33.805Z,60.42
2022-11-06T04:45:41.303Z,57.40
2022-11-06T04:48:48.146Z,57.95
2022-11-06T04:51:57.376Z,60.64
2022-11-06T04:55:02.980Z,61.08
2022-11-06T04:58:08.452Z,61.48
2022-11-06T05:01:13.981Z,61.93
2022-11-06T05:04:21.211Z,72.68
2022-11-06T05:07:26.547Z,72.16
2022-11-06T05:10:32.106Z,68.35
2022-11-06T05:13:38.318Z,66.40
2022-11-06T05:16:46.387Z,65.55
2022-11-06T05:19:53.540Z,64.66
2022-11-06T05:23:00.634Z,64.18
2022-11-06T05:26:07.101Z,63.47
2022-11-06T05:29:13.883Z,62.90
2022-11-06T05:32:19.521Z,62.35
2022-11-06T05:35:30.133Z,61.59
2022-11-06T05:38:35.603Z,61.30
2022-11-06T05:41:41.183Z,61.11
2022-11-06T05:44:46.941Z,61.01
2022-11-06T05:47:52.489Z,61.09
2022-11-06T05:51:04.156Z,61.08
2022-11-06T05:54:09.713Z,60.36
2022-11-06T05:57:15.347Z,59.88
2022-11-06T06:00:20.966Z,59.68
2022-11-06T06:03:26.783Z,57.94
2022-11-06T06:06:32.476Z,57.67
2022-11-06T06:09:37.806Z,59.50
2022-11-06T06:12:43.315Z,59.91
2022-11-06T06:15:48.770Z,60.50
2022-11-06T06:18:54.129Z,60.55
2022-11-06T06:21:59.816Z,60.90
2022-11-06T06:25:09.766Z,66.46
2022-11-06T06:28:22.307Z,74.19
2022-11-06T06:31:27.631Z,72.53
2022-11-06T06:34:33.186Z,70.72
2022-11-06T06:37:41.082Z,69.45
2022-11-06T06:40:46.461Z,68.48
2022-11-06T06:43:52.123Z,66.89
2022-11-06T06:46:57.697Z,65.71
2022-11-06T06:50:03.330Z,64.83
2022-11-06T06:53:08.811Z,63.94
2022-11-06T06:56:14.401Z,63.29
2022-11-06T06:59:19.814Z,62.63
2022-11-06T07:02:25.292Z,62.14
2022-11-06T07:05:32.433Z,61.62
2022-11-06T07:08:40.009Z,61.24
2022-11-06T07:11:46.419Z,61.08
2022-11-06T07:14:53.332Z,60.87
2022-11-06T07:18:02.090Z,60.36
2022-11-06T07:21:07.982Z,60.18
2022-11-06T07:24:13.405Z,60.29
2022-11-06T07:27:24.172Z,60.19
2022-11-06T07:30:29.693Z,59.95
2022-11-06T07:33:35.934Z,59.86
2022-11-06T07:36:41.243Z,59.58
2022-11-06T07:39:46.493Z,58.27
2022-11-06T07:42:51.863Z,57.04
2022-11-06T07:46:00.589Z,57.54
2022-11-06T07:49:06.077Z,57.93
2022-11-06T07:52:11.445Z,61.45
2022-11-06T07:55:16.987Z,69.13
2022-11-06T07:58:22.786Z,69.71
2022-11-06T08:01:30.008Z,68.00
2022-11-06T08:04:35.508Z,67.06
2022-11-06T08:07:40.861Z,66.35
2022-11-06T08:10:47.806Z,65.40
2022-11-06T08:13:53.180Z,64.76
2022-11-06T08:16:59.477Z,64.34
2022-11-06T08:20:05.105Z,63.54
2022-11-06T08:23:14.139Z,63.14
2022-11-06T08:26:19.612Z,63.59
2022-11-06T08:29:26.469Z,63.15
2022-11-06T08:32:31.916Z,62.76
2022-11-06T08:35:37.729Z,62.46
2022-11-06T08:38:43.491Z,62.24
2022-11-06T08:41:49.062Z,62.11
2022-11-06T08:44:54.528Z,61.88
2022-11-06T08:48:03.547Z,61.91
2022-11-06T08:51:09.109Z,61.81
2022-11-06T08:54:14.808Z,61.50
2022-11-06T08:57:21.450Z,61.31
2022-11-06T09:00:26.868Z,61.36
2022-11-06T09:03:32.329Z,61.26
2022-11-06T09:06:37.781Z,61.26
2022-11-06T09:09:43.322Z,61.09
2022-11-06T09:12:48.926Z,60.96
2022-11-06T09:15:54.366Z,60.91
2022-11-06T09:18:59.803Z,60.72
2022-11-06T09:22:05.232Z,60.86
2022-11-06T09:25:11.526Z,60.84
2022-11-06T09:28:17.011Z,60.56
2022-11-06T09:31:25.139Z,60.91
2022-11-06T09:34:30.458Z,61.25
2022-11-06T09:37:35.821Z,61.34
2022-11-06T09:40:43.390Z,60.53
2022-11-06T09:44:06.096Z,59.84
2022-11-06T09:47:14.801Z,58.94
2022-11-06T09:50:22.780Z,63.18
2022-11-06T09:53:32.171Z,66.15
2022-11-06T09:56:40.216Z,64.14
2022-11-06T09:59:48.737Z,63.79
2022-11-06T10:02:56.472Z,63.62
2022-11-06T10:06:01.852Z,62.75
2022-11-06T10:09:07.872Z,62.37
2022-11-06T10:12:20.616Z,62.09
2022-11-06T10:15:27.484Z,62.30
2022-11-06T10:18:42.005Z,62.30
2022-11-06T10:21:52.338Z,61.60
2022-11-06T10:25:03.049Z,61.93
2022-11-06T10:28:18.042Z,60.89
2022-11-06T10:31:31.166Z,60.20
2022-11-06T10:34:38.983Z,61.07
2022-11-06T10:37:47.360Z,60.05
2022-11-06T10:40:54.112Z,58.92
2022-11-06T10:44:02.354Z,63.74
2022-11-06T10:47:14.176Z,65.43
2022-11-06T10:50:19.987Z,63.44
2022-11-06T10:53:31.465Z,61.63
2022-11-06T10:56:47.350Z,61.26
2022-11-06T10:59:53.994Z,60.73
2022-11-06T11:03:00.945Z,60.83
2022-11-06T11:06:06.521Z,60.78
2022-11-06T11:09:31.850Z,61.12
2022-11-06T11:12:37.196Z,59.35
2022-11-06T11:15:45.648Z,58.50
2022-11-06T11:18:52.572Z,64.11
2022-11-06T11:22:01.081Z,62.73
2022-11-06T11:25:08.025Z,61.90
2022-11-06T11:28:21.918Z,60.00
2022-11-06T11:31:31.471Z,61.28
2022-11-06T11:34:40.636Z,63.61
2022-11-06T11:37:49.044Z,61.94
2022-11-06T11:41:06.249Z,60.77
2022-11-06T11:44:16.220Z,60.02
2022-11-06T11:47:25.681Z,58.71
2022-11-06T11:50:32.940Z,61.06
2022-11-06T11:53:39.427Z,63.24
2022-11-06T11:57:04.117Z,60.97
2022-11-06T12:00:15.995Z,59.63
2022-11-06T12:03:23.184Z,59.89
2022-11-06T12:06:28.611Z,62.58
2022-11-06T12:09:36.157Z,63.03
2022-11-06T12:12:49.111Z,60.37
2022-11-06T12:15:56.517Z,58.13
2022-11-06T12:19:05.058Z,61.05
2022-11-06T12:22:16.296Z,63.27
2022-11-06T12:25:26.573Z,62.88
2022-11-06T12:28:33.967Z,59.38
2022-11-06T12:31:41.939Z,58.65
2022-11-06T12:34:50.783Z,61.29
2022-11-06T12:38:01.963Z,63.20
2022-11-06T12:41:10.991Z,61.78
2022-11-06T12:44:17.159Z,57.24
2022-11-06T12:47:29.073Z,57.90
2022-11-06T12:50:38.337Z,62.63
2022-11-06T12:53:52.263Z,62.42
2022-11-06T12:57:00.771Z,59.73
2022-11-06T13:00:10.994Z,57.22
2022-11-06T13:03:32.696Z,59.82
2022-11-06T13:06:42.539Z,62.37
2022-11-06T13:09:54.168Z,62.09
2022-11-06T13:13:05.333Z,60.42
2022-11-06T13:16:17.617Z,56.59
2022-11-06T13:19:28.685Z,57.70
2022-11-06T13:22:36.756Z,59.50
2022-11-06T13:25:47.812Z,62.48
2022-11-06T13:28:57.091Z,62.26
2022-11-06T13:32:06.362Z,59.91
2022-11-06T13:35:14.978Z,56.32
2022-11-06T13:38:23.654Z,58.29
2022-11-06T13:41:30.630Z,59.71
2022-11-06T13:44:36.564Z,62.95
2022-11-06T13:47:47.464Z,63.12
2022-11-06T13:50:56.504Z,59.46
2022-11-06T13:54:07.142Z,56.57
2022-11-06T13:57:33.485Z,58.06
2022-11-06T14:00:46.154Z,59.01
2022-11-06T14:04:07.753Z,62.65
2022-11-06T14:07:13.558Z,61.55
2022-11-06T14:10:21.910Z,58.43
2022-11-06T14:13:29.179Z,58.11
2022-11-06T14:16:35.125Z,61.32
2022-11-06T14:19:43.099Z,63.22
2022-11-06T14:22:50.533Z,64.61
2022-11-06T14:26:03.129Z,60.63
2022-11-06T14:29:25.684Z,56.96
2022-11-06T14:32:47.689Z,57.12
2022-11-06T14:35:59.037Z,59.99
2022-11-06T14:39:11.886Z,62.05
2022-11-06T14:42:21.619Z,65.30
2022-11-06T14:45:31.349Z,62.93
2022-11-06T14:48:39.325Z,58.18
2022-11-06T14:51:44.749Z,56.30
2022-11-06T14:55:02.031Z,57.98
2022-11-06T14:58:19.931Z,59.16
2022-11-06T15:01:28.725Z,62.64
2022-11-06T15:04:36.043Z,65.50
2022-11-06T15:08:04.881Z,64.01
2022-11-06T15:11:10.717Z,62.03
2022-11-06T15:14:33.624Z,59.10
2022-11-06T15:17:40.982Z,55.15
2022-11-06T15:20:51.870Z,55.24
2022-11-06T15:24:07.629Z,56.51
2022-11-06T15:27:17.405Z,56.29
2022-11-06T15:30:22.806Z,58.24
2022-11-06T15:33:33.529Z,61.36
2022-11-06T15:36:42.473Z,66.93
2022-11-06T15:39:57.508Z,71.31
2022-11-06T15:43:10.504Z,66.75
2022-11-06T15:46:21.480Z,63.17
2022-11-06T15:49:27.091Z,61.92
2022-11-06T15:52:32.516Z,59.19
2022-11-06T15:55:39.665Z,55.79
2022-11-06T15:58:45.057Z,55.85
2022-11-06T16:01:51.048Z,55.80
2022-11-06T16:04:56.786Z,57.97
2022-11-06T16:08:02.811Z,57.94
2022-11-06T16:11:13.576Z,58.45
2022-11-06T16:14:19.970Z,62.01
2022-11-06T16:17:26.939Z,67.82
2022-11-06T16:20:32.350Z,72.82
2022-11-06T16:23:43.079Z,70.88
2022-11-06T16:26:49.746Z,67.90
2022-11-06T16:29:56.503Z,64.95
2022-11-06T16:33:04.176Z,63.17
2022-11-06T16:36:13.974Z,61.18
2022-11-06T16:39:49.958Z,58.51
2022-11-06T16:43:03.938Z,55.36
2022-11-06T16:46:09.348Z,55.45
2022-11-06T16:49:32.270Z,55.73
2022-11-06T16:52:39.144Z,56.52
2022-11-06T16:55:44.848Z,59.82
2022-11-06T16:58:53.070Z,60.34
2022-11-06T17:01:58.488Z,63.82
2022-11-06T17:05:14.982Z,72.00
2022-11-06T17:08:24.956Z,69.49
2022-11-06T17:11:30.445Z,65.46
2022-11-06T17:14:36.291Z,62.87
2022-11-06T17:17:43.033Z,60.81
2022-11-06T17:20:51.017Z,59.37
2022-11-06T17:24:07.616Z,55.66
2022-11-06T17:27:21.754Z,56.25
2022-11-06T17:30:27.175Z,57.82
2022-11-06T17:33:35.665Z,57.36
2022-11-06T17:36:41.140Z,58.12
2022-11-06T17:39:48.772Z,60.51
2022-11-06T17:42:55.361Z,66.95
2022-11-06T17:46:01.087Z,70.09
2022-11-06T17:49:18.067Z,68.78
2022-11-06T17:52:24.162Z,66.84
2022-11-06T17:55:32.027Z,64.90
2022-11-06T17:58:38.773Z,63.78
2022-11-06T18:01:44.333Z,62.76
2022-11-06T18:04:51.415Z,62.24
2022-11-06T18:07:56.967Z,61.67
2022-11-06T18:11:02.576Z,61.02
2022-11-06T18:14:08.062Z,60.86
2022-11-06T18:17:13.581Z,60.76
2022-11-06T18:20:18.996Z,60.58
2022-11-06T18:23:24.432Z,60.57
2022-11-06T18:26:31.802Z,60.23
2022-11-06T18:29:37.425Z,60.34
2022-11-06T18:32:42.965Z,60.20
2022-11-06T18:35:49.350Z,60.06
2022-11-06T18:38:57.658Z,60.04
2022-11-06T18:42:03.138Z,60.20
2022-11-06T18:45:09.175Z,60.06
2022-11-06T18:48:19.792Z,60.17
2022-11-06T18:51:36.047Z,60.27
2022-11-06T18:54:41.851Z,60.54
2022-11-06T18:57:50.441Z,60.56
2022-11-06T19:01:01.443Z,60.74
2022-11-06T19:04:11.257Z,60.80
2022-11-06T19:07:16.923Z,60.77
2022-11-06T19:10:22.434Z,60.79
2022-11-06T19:13:27.777Z,61.05
2022-11-06T19:16:33.380Z,60.79
2022-11-06T19:19:38.834Z,61.18
2022-11-06T19:22:44.219Z,61.12
2022-11-06T19:25:58.746Z,61.40
2022-11-06T19:29:10.591Z,61.55
2022-11-06T19:32:15.952Z,61.50
2022-11-06T19:35:26.503Z,61.35
2022-11-06T19:38:31.972Z,60.88
2022-11-06T19:41:39.901Z,61.45
2022-11-06T19:44:45.362Z,61.43
2022-11-06T19:47:56.687Z,61.59
2022-11-06T19:51:02.183Z,61.30
2022-11-06T19:54:09.716Z,61.36
2022-11-06T19:57:29.096Z,61.38
2022-11-06T20:00:36.050Z,61.19
2022-11-06T20:03:46.466Z,61.13
2022-11-06T20:06:52.967Z,61.05
2022-11-06T20:10:02.147Z,59.79
2022-11-06T20:13:10.286Z,57.45
2022-11-06T20:16:18.979Z,57.21
2022-11-06T20:19:24.411Z,57.62
2022-11-06T20:22:30.987Z,58.22
2022-11-06T20:25:36.282Z,59.40
2022-11-06T20:28:41.940Z,65.02
2022-11-06T20:31:47.384Z,71.08
2022-11-06T20:34:54.421Z,70.75
2022-11-06T20:38:00.063Z,67.96
2022-11-06T20:41:05.696Z,65.68
2022-11-06T20:44:11.174Z,63.94
2022-11-06T20:47:16.807Z,62.27
2022-11-06T20:50:22.290Z,61.16
2022-11-06T20:53:28.276Z,59.79
2022-11-06T20:56:36.559Z,57.18
2022-11-06T20:59:42.022Z,56.72
2022-11-06T21:02:47.802Z,58.62
2022-11-06T21:05:56.551Z,58.13
2022-11-06T21:09:02.202Z,58.78
2022-11-06T21:12:08.493Z,59.56
2022-11-06T21:15:15.184Z,61.04
2022-11-06T21:18:20.695Z,60.49
2022-11-06T21:21:29.817Z,63.04
2022-11-06T21:24:35.584Z,71.72
2022-11-06T21:27:41.123Z,74.62
2022-11-06T21:30:47.809Z,70.14
2022-11-06T21:33:53.971Z,67.33
2022-11-06T21:37:03.091Z,65.62
2022-11-06T21:40:09.895Z,64.09
2022-11-06T21:43:15.711Z,62.56
2022-11-06T21:46:22.152Z,61.78
2022-11-06T21:49:27.644Z,60.46
2022-11-06T21:52:50.505Z,60.07
2022-11-06T21:56:02.462Z,57.58
2022-11-06T21:59:09.088Z,57.03
2022-11-06T22:02:14.775Z,57.45
2022-11-06T22:05:23.487Z,57.62
2022-11-06T22:08:30.638Z,58.27
2022-11-06T22:11:37.176Z,58.25
2022-11-06T22:14:42.610Z,59.94
2022-11-06T22:17:48.100Z,63.78
2022-11-06T22:20:53.488Z,70.25
2022-11-06T22:23:59.007Z,73.25
2022-11-06T22:27:04.467Z,70.67
2022-11-06T22:30:12.253Z,68.13
2022-11-06T22:33:17.891Z,66.37
2022-11-06T22:36:24.677Z,64.66
2022-11-06T22:39:30.270Z,63.13
2022-11-06T22:42:35.674Z,61.78
2022-11-06T22:45:43.847Z,61.34
2022-11-06T22:48:49.570Z,61.22
2022-11-06T22:51:55.110Z,60.27
2022-11-06T22:55:03.013Z,57.60
2022-11-06T22:58:08.548Z,56.35
2022-11-06T23:01:14.680Z,56.98
2022-11-06T23:04:20.090Z,56.91
2022-11-06T23:07:25.431Z,57.23
2022-11-06T23:10:30.847Z,59.72
2022-11-06T23:13:36.497Z,61.64
2022-11-06T23:17:00.988Z,68.03
2022-11-06T23:20:07.454Z,73.18
2022-11-06T23:23:16.129Z,72.35
2022-11-06T23:26:22.084Z,69.81
2022-11-06T23:29:27.614Z,67.10
2022-11-06T23:32:33.928Z,64.70
2022-11-06T23:35:39.670Z,62.11
2022-11-06T23:38:46.023Z,60.43
2022-11-06T23:41:51.596Z,58.97
2022-11-06T23:45:15.016Z,55.32
2022-11-06T23:48:20.427Z,55.13
2022-11-06T23:51:27.710Z,55.76
2022-11-06T23:54:33.321Z,58.66
2022-11-06T23:57:41.685Z,65.55
